Time;durP1;ratioP1;P1;durP2;ratioP2;P2;SDS_P1;SDS_P2;PMS_P1;PMS_P2;Temp;Humidity;BMP_temperature;BMP_pressure;BME280_temperature;BME280_humidity;BME280_pressure;Samples;Min_cycle;Max_cycle;Signal;HPM_P1;HPM_P2
2023/03/05 00:01:32;;;;;;;11.52;9.85;;;3.10;99.90;;;;;;5053748;28;20269;-84
2023/03/05 00:04:03;;;;;;;10.57;9.25;;;3.00;99.90;;;;;;5053838;28;20223;-84
2023/03/05 00:06:32;;;;;;;14.32;9.95;;;3.00;99.90;;;;;;5054000;28;20209;-84
2023/03/05 00:09:00;;;;;;;10.48;8.52;;;3.10;99.90;;;;;;5053295;28;20218;-84
2023/03/05 00:11:30;;;;;;;13.10;9.93;;;3.00;99.90;;;;;;5053502;28;20214;-84
2023/03/05 00:14:00;;;;;;;12.65;9.48;;;3.00;99.90;;;;;;5054147;28;20202;-85
2023/03/05 00:16:30;;;;;;;14.60;10.70;;;3.00;99.90;;;;;;5053918;28;20221;-84
2023/03/05 00:19:00;;;;;;;11.32;9.23;;;3.10;99.90;;;;;;5053454;28;20232;-84
2023/03/05 00:21:30;;;;;;;14.82;8.65;;;3.00;99.90;;;;;;5053650;28;20209;-84
2023/03/05 00:24:01;;;;;;;10.43;9.32;;;3.00;99.90;;;;;;5053611;28;20212;-84
2023/03/05 00:26:30;;;;;;;10.88;9.07;;;3.00;99.90;;;;;;5053618;28;20213;-84
2023/03/05 00:28:58;;;;;;;11.27;8.30;;;3.10;99.90;;;;;;5052655;28;20233;-84
2023/03/05 00:31:30;;;;;;;12.10;9.63;;;3.10;99.90;;;;;;5053359;28;20208;-84
2023/03/05 00:34:00;;;;;;;9.75;7.65;;;3.10;99.90;;;;;;5053599;28;20212;-85
2023/03/05 00:36:29;;;;;;;11.68;8.93;;;3.00;99.90;;;;;;5053169;28;20215;-85
2023/03/05 00:38:57;;;;;;;14.48;10.27;;;3.00;99.90;;;;;;5052183;28;20245;-84
2023/03/05 00:41:26;;;;;;;11.27;8.80;;;3.00;99.90;;;;;;5053591;28;20202;-84
2023/03/05 00:43:55;;;;;;;9.07;8.05;;;3.00;99.90;;;;;;5052874;28;20288;-84
2023/03/05 00:46:23;;;;;;;11.93;9.52;;;3.00;99.90;;;;;;5053215;28;20209;-84
2023/03/05 00:48:53;;;;;;;11.02;9.13;;;3.00;99.90;;;;;;5052452;28;20239;-84
2023/03/05 00:51:21;;;;;;;15.15;11.02;;;3.00;99.90;;;;;;5052613;28;20229;-84
2023/03/05 00:53:50;;;;;;;14.98;9.05;;;3.00;99.90;;;;;;5053170;28;20212;-84
2023/03/05 00:56:18;;;;;;;8.70;7.75;;;3.00;99.90;;;;;;5052896;28;20220;-84
2023/03/05 00:58:46;;;;;;;12.18;9.05;;;3.00;99.90;;;;;;5052199;28;20213;-84
2023/03/05 01:01:15;;;;;;;10.38;8.75;;;3.00;99.90;;;;;;5052950;28;20197;-84
2023/03/05 01:03:43;;;;;;;10.45;9.13;;;3.00;99.90;;;;;;5052929;28;20213;-84
2023/03/05 01:06:15;;;;;;;11.63;9.68;;;3.00;99.90;;;;;;5052721;28;20214;-84
2023/03/05 01:08:44;;;;;;;11.82;9.20;;;3.00;99.90;;;;;;5052290;28;20201;-84
2023/03/05 01:11:12;;;;;;;9.30;7.78;;;3.00;99.90;;;;;;5052219;28;20290;-84
2023/03/05 01:13:41;;;;;;;12.13;9.35;;;3.00;99.90;;;;;;5052458;28;20209;-84
2023/03/05 01:16:09;;;;;;;14.75;9.57;;;2.90;99.90;;;;;;5052528;28;20202;-83
2023/03/05 01:18:38;;;;;;;11.15;8.48;;;2.90;99.90;;;;;;5052121;28;20269;-84
2023/03/05 01:21:06;;;;;;;11.30;7.32;;;3.00;99.90;;;;;;5052845;28;20224;-84
2023/03/05 01:23:37;;;;;;;7.93;7.13;;;3.00;99.90;;;;;;5052498;28;20202;-84
2023/03/05 01:26:07;;;;;;;11.48;8.52;;;3.00;99.90;;;;;;5052756;28;20208;-84
2023/03/05 01:28:37;;;;;;;9.13;8.05;;;3.00;99.90;;;;;;5051932;28;20240;-85
2023/03/05 01:31:08;;;;;;;9.65;8.05;;;3.00;99.90;;;;;;5052498;28;20222;-85
2023/03/05 01:33:38;;;;;;;11.82;8.10;;;3.00;99.90;;;;;;5052872;28;20205;-82
2023/03/05 01:36:15;;;;;;;14.07;9.85;;;3.00;99.90;;;;;;5052548;28;20335;-82
2023/03/05 01:38:46;;;;;;;11.02;8.48;;;3.00;99.90;;;;;;5051966;28;20278;-82
2023/03/05 01:41:16;;;;;;;7.57;6.30;;;3.00;99.90;;;;;;5052378;28;20215;-82
2023/03/05 01:43:45;;;;;;;11.68;8.07;;;3.00;99.90;;;;;;5052174;28;20233;-82
2023/03/05 01:46:26;;;;;;;14.05;7.90;;;3.00;99.90;;;;;;5052485;28;20209;-82
2023/03/05 01:48:59;;;;;;;10.40;9.20;;;3.00;99.90;;;;;;5052232;28;20217;-82
2023/03/05 01:51:31;;;;;;;13.00;9.50;;;3.00;99.90;;;;;;5054790;28;20225;-82
2023/03/05 01:54:03;;;;;;;15.60;9.88;;;3.00;99.90;;;;;;5056669;28;20212;-82
2023/03/05 01:56:31;;;;;;;10.40;8.75;;;3.00;99.90;;;;;;5054887;28;20214;-82
2023/03/05 01:59:03;;;;;;;9.95;8.43;;;3.00;99.90;;;;;;5055229;28;20229;-82
2023/03/05 02:01:36;;;;;;;10.60;8.98;;;3.00;99.90;;;;;;5056557;28;20206;-82
2023/03/05 02:04:06;;;;;;;10.82;8.85;;;2.90;99.90;;;;;;5055968;28;20217;-82
2023/03/05 02:06:35;;;;;;;9.57;7.68;;;3.00;99.90;;;;;;5056116;28;20224;-82
2023/03/05 02:09:05;;;;;;;14.82;9.65;;;3.00;99.90;;;;;;5055444;28;20236;-82
2023/03/05 02:11:34;;;;;;;10.32;8.32;;;3.00;99.90;;;;;;5055319;28;20256;-83
2023/03/05 02:14:06;;;;;;;12.25;9.32;;;3.00;99.90;;;;;;5055538;28;20293;-82
2023/03/05 02:16:38;;;;;;;10.02;8.77;;;3.00;99.90;;;;;;5056043;28;20209;-82
2023/03/05 02:19:09;;;;;;;9.70;7.88;;;3.00;99.90;;;;;;5056019;28;20229;-82
2023/03/05 02:21:41;;;;;;;11.13;8.57;;;3.00;99.90;;;;;;5055913;28;20208;-82
2023/03/05 02:24:14;;;;;;;9.75;8.30;;;3.00;99.90;;;;;;5055614;28;20213;-82
2023/03/05 02:26:43;;;;;;;13.27;9.30;;;3.00;99.90;;;;;;5055666;28;20213;-82
2023/03/05 02:29:17;;;;;;;9.75;8.35;;;3.00;99.90;;;;;;5056226;28;20285;-83
2023/03/05 02:31:46;;;;;;;12.30;9.07;;;3.00;99.90;;;;;;5055665;28;20224;-82
2023/03/05 02:34:14;;;;;;;11.68;9.38;;;3.00;99.90;;;;;;5055541;28;20209;-82
2023/03/05 02:36:44;;;;;;;11.93;9.60;;;2.90;99.90;;;;;;5055444;28;20221;-82
2023/03/05 02:39:12;;;;;;;11.10;8.50;;;3.00;99.90;;;;;;5055553;28;20233;-82
2023/03/05 02:41:41;;;;;;;11.43;9.40;;;2.90;99.90;;;;;;5055335;28;20206;-82
2023/03/05 02:44:09;;;;;;;14.95;11.05;;;3.00;99.90;;;;;;5055534;28;20205;-82
2023/03/05 02:46:37;;;;;;;15.77;9.85;;;3.00;99.90;;;;;;5056055;28;20213;-82
2023/03/05 02:49:06;;;;;;;10.07;8.00;;;3.00;99.90;;;;;;5054977;28;20228;-82
2023/03/05 02:51:37;;;;;;;11.35;9.25;;;3.00;99.90;;;;;;5055126;28;20308;-82
2023/03/05 02:54:06;;;;;;;11.02;8.57;;;3.00;99.90;;;;;;5055453;28;20213;-82
2023/03/05 02:56:37;;;;;;;11.85;9.02;;;3.00;99.90;;;;;;5053901;28;20202;-82
2023/03/05 02:59:05;;;;;;;12.93;8.73;;;3.00;99.90;;;;;;5054934;28;20229;-82
2023/03/05 03:01:34;;;;;;;20.38;9.30;;;3.00;99.90;;;;;;5054785;28;20197;-82
2023/03/05 03:04:02;;;;;;;11.20;9.35;;;3.00;99.90;;;;;;5054712;28;20217;-84
2023/03/05 03:06:30;;;;;;;11.93;8.65;;;3.00;99.90;;;;;;5054726;28;20213;-84
2023/03/05 03:08:59;;;;;;;14.63;9.32;;;3.00;99.90;;;;;;5054597;28;20234;-84
2023/03/05 03:11:28;;;;;;;9.02;7.85;;;3.10;99.90;;;;;;5054980;28;20232;-84
2023/03/05 03:13:57;;;;;;;12.15;9.65;;;3.10;99.90;;;;;;5054669;28;20205;-84
2023/03/05 03:16:25;;;;;;;9.05;7.40;;;3.10;99.90;;;;;;5054501;28;20206;-84
2023/03/05 03:18:53;;;;;;;10.68;8.25;;;3.10;99.90;;;;;;5054045;28;20256;-84
2023/03/05 03:21:23;;;;;;;15.32;9.07;;;3.00;99.90;;;;;;5055207;28;20208;-84
2023/03/05 03:23:52;;;;;;;10.52;9.15;;;3.00;99.90;;;;;;5054397;28;20269;-85
2023/03/05 03:26:20;;;;;;;12.40;8.20;;;3.10;99.90;;;;;;5054771;28;20292;-84
2023/03/05 03:28:53;;;;;;;11.82;9.35;;;3.10;99.90;;;;;;5054080;28;20264;-84
2023/03/05 03:31:22;;;;;;;12.85;9.38;;;3.10;99.90;;;;;;5054555;28;20224;-82
2023/03/05 03:33:50;;;;;;;12.98;9.60;;;3.10;99.90;;;;;;5054607;28;20292;-82
2023/03/05 03:36:18;;;;;;;16.75;10.35;;;3.10;99.90;;;;;;5054763;28;20216;-82
2023/03/05 03:38:47;;;;;;;14.90;8.73;;;3.10;99.90;;;;;;5053752;28;20209;-82
2023/03/05 03:41:17;;;;;;;10.43;8.20;;;3.10;99.90;;;;;;5054494;28;20206;-83
2023/03/05 03:43:45;;;;;;;10.55;8.15;;;3.10;99.90;;;;;;5054021;28;20213;-82
2023/03/05 03:46:15;;;;;;;12.27;9.70;;;3.10;99.90;;;;;;5054060;28;20202;-82
2023/03/05 03:48:44;;;;;;;11.30;8.80;;;3.10;99.90;;;;;;5052990;28;20219;-82
2023/03/05 03:51:12;;;;;;;11.10;8.63;;;3.10;99.90;;;;;;5053793;28;20226;-82
2023/03/05 03:53:40;;;;;;;9.43;8.50;;;3.10;99.90;;;;;;5054609;28;20213;-82
2023/03/05 03:56:09;;;;;;;15.15;10.32;;;3.10;99.90;;;;;;5054033;28;20293;-82
2023/03/05 03:58:37;;;;;;;14.20;9.75;;;3.10;99.90;;;;;;5053605;28;20198;-82
2023/03/05 04:01:05;;;;;;;9.57;8.45;;;3.10;99.90;;;;;;5053885;28;20241;-82
2023/03/05 04:03:35;;;;;;;8.95;8.05;;;3.10;99.90;;;;;;5053866;28;20209;-82
2023/03/05 04:06:04;;;;;;;12.85;9.30;;;3.10;99.90;;;;;;5054048;28;20213;-82
2023/03/05 04:08:32;;;;;;;20.33;8.50;;;3.10;99.90;;;;;;5053110;28;20202;-82
2023/03/05 04:11:00;;;;;;;11.32;9.15;;;3.10;99.90;;;;;;5053739;28;20206;-82
2023/03/05 04:13:29;;;;;;;10.07;8.07;;;3.10;99.90;;;;;;5052736;28;20205;-82
2023/03/05 04:15:57;;;;;;;13.70;9.63;;;3.10;99.90;;;;;;5053122;28;20217;-82
2023/03/05 04:18:25;;;;;;;11.23;8.75;;;3.20;99.90;;;;;;5053036;28;20213;-82
2023/03/05 04:20:55;;;;;;;9.52;8.20;;;3.20;99.90;;;;;;5053874;28;20253;-83
2023/03/05 04:23:23;;;;;;;10.20;8.40;;;3.10;99.90;;;;;;5053800;28;20212;-82
2023/03/05 04:25:52;;;;;;;10.15;7.97;;;3.10;99.90;;;;;;5053422;28;20205;-82
2023/03/05 04:28:20;;;;;;;9.45;7.85;;;3.10;99.90;;;;;;5052847;28;20269;-82
2023/03/05 04:30:48;;;;;;;15.02;9.50;;;3.10;99.90;;;;;;5053224;28;20240;-82
2023/03/05 04:33:17;;;;;;;12.65;9.23;;;3.10;99.90;;;;;;5053382;28;20312;-82
2023/03/05 04:35:45;;;;;;;9.93;8.68;;;3.10;99.90;;;;;;5053459;28;20209;-82
2023/03/05 04:38:15;;;;;;;11.25;9.32;;;3.10;99.90;;;;;;5052736;28;20216;-82
2023/03/05 04:40:45;;;;;;;10.98;8.55;;;3.10;99.90;;;;;;5052969;28;20230;-83
2023/03/05 04:43:14;;;;;;;9.93;8.27;;;3.00;99.90;;;;;;5052746;28;20205;-82
2023/03/05 04:45:43;;;;;;;13.18;8.20;;;3.00;99.90;;;;;;5053232;28;20216;-82
2023/03/05 04:48:12;;;;;;;20.65;10.73;;;3.00;99.90;;;;;;5052504;28;20213;-83
2023/03/05 04:50:41;;;;;;;10.73;8.65;;;3.10;99.90;;;;;;5053410;28;20225;-82
2023/03/05 04:53:09;;;;;;;10.73;9.07;;;3.00;99.90;;;;;;5052596;28;20248;-82
2023/03/05 04:55:39;;;;;;;12.52;9.88;;;3.00;99.90;;;;;;5051525;28;20206;-82
2023/03/05 04:58:07;;;;;;;10.40;8.82;;;3.00;99.90;;;;;;5052641;28;20202;-82
2023/03/05 05:00:35;;;;;;;11.98;9.02;;;3.00;99.90;;;;;;5053120;28;20236;-82
2023/03/05 05:03:04;;;;;;;12.13;9.15;;;3.00;99.90;;;;;;5052792;28;20205;-82
2023/03/05 05:05:33;;;;;;;10.13;8.95;;;3.10;99.90;;;;;;5052764;28;20245;-82
2023/03/05 05:08:01;;;;;;;13.27;9.77;;;3.10;99.90;;;;;;5052445;28;20212;-82
2023/03/05 05:10:30;;;;;;;11.77;9.45;;;3.00;99.90;;;;;;5052747;28;20218;-83
2023/03/05 05:13:00;;;;;;;10.93;9.52;;;3.00;99.90;;;;;;5052543;28;20229;-82
2023/03/05 05:15:28;;;;;;;10.52;9.00;;;3.10;99.90;;;;;;5052538;28;20209;-82
2023/03/05 05:17:56;;;;;;;13.57;10.18;;;3.10;99.90;;;;;;5052360;28;20214;-82
2023/03/05 05:20:24;;;;;;;8.90;7.18;;;3.10;99.90;;;;;;5052587;28;20232;-82
2023/03/05 05:22:53;;;;;;;10.55;9.45;;;3.20;99.90;;;;;;5052446;28;20205;-83
2023/03/05 05:25:21;;;;;;;12.05;9.20;;;3.10;99.90;;;;;;5052585;28;20201;-82
2023/03/05 05:27:49;;;;;;;15.65;9.32;;;3.20;99.90;;;;;;5052308;28;20206;-82
2023/03/05 05:30:19;;;;;;;17.75;11.85;;;3.10;99.90;;;;;;5052104;28;20236;-82
2023/03/05 05:32:47;;;;;;;7.68;6.50;;;3.10;99.90;;;;;;5052263;28;20225;-82
2023/03/05 05:35:15;;;;;;;14.23;8.98;;;3.10;99.90;;;;;;5052775;28;20204;-83
2023/03/05 05:37:44;;;;;;;12.10;9.32;;;3.10;99.90;;;;;;5052023;28;20206;-82
2023/03/05 05:40:13;;;;;;;10.10;8.30;;;3.10;99.90;;;;;;5053039;28;20230;-83
2023/03/05 05:42:41;;;;;;;11.18;9.45;;;3.10;99.90;;;;;;5052308;28;20202;-83
2023/03/05 05:45:10;;;;;;;10.43;9.40;;;3.10;99.90;;;;;;5052114;28;20211;-82
2023/03/05 05:47:40;;;;;;;11.15;7.97;;;3.10;99.90;;;;;;5051618;28;20259;-82
2023/03/05 05:50:10;;;;;;;10.40;8.68;;;3.10;99.90;;;;;;5052343;28;20225;-82
2023/03/05 05:52:38;;;;;;;20.02;10.50;;;3.10;99.90;;;;;;5052472;28;20303;-82
2023/03/05 05:55:07;;;;;;;12.82;9.05;;;3.10;99.90;;;;;;5051023;28;20209;-82
2023/03/05 05:57:36;;;;;;;10.93;9.32;;;3.10;99.90;;;;;;5051614;28;20206;-82
2023/03/05 06:00:07;;;;;;;15.23;11.55;;;3.20;99.90;;;;;;5052071;28;20276;-82
2023/03/05 06:02:40;;;;;;;17.60;8.52;;;3.20;99.90;;;;;;5052281;28;20210;-82
2023/03/05 06:05:12;;;;;;;12.20;8.02;;;3.20;99.90;;;;;;5052544;28;20217;-82
2023/03/05 06:07:40;;;;;;;10.15;8.88;;;3.20;99.90;;;;;;5051898;28;20202;-82
2023/03/05 06:10:10;;;;;;;12.02;9.70;;;3.20;99.90;;;;;;5051849;28;20229;-83
2023/03/05 06:12:38;;;;;;;17.75;10.27;;;3.20;99.90;;;;;;5052204;28;20217;-82
2023/03/05 06:15:08;;;;;;;9.10;7.85;;;3.30;99.90;;;;;;5052279;28;20206;-82
2023/03/05 06:17:36;;;;;;;11.45;8.15;;;3.20;99.90;;;;;;5051344;28;20198;-82
2023/03/05 06:20:07;;;;;;;12.02;9.20;;;3.30;99.90;;;;;;5052123;28;20226;-82
2023/03/05 06:22:36;;;;;;;12.15;9.00;;;3.30;99.90;;;;;;5052376;28;20216;-82
2023/03/05 06:25:05;;;;;;;8.73;7.75;;;3.20;99.90;;;;;;5052118;28;20265;-82
2023/03/05 06:27:36;;;;;;;10.63;8.80;;;3.30;99.90;;;;;;5051394;28;20222;-82
2023/03/05 06:30:05;;;;;;;14.10;9.25;;;3.30;99.90;;;;;;5051735;28;20233;-82
2023/03/05 06:32:33;;;;;;;9.38;8.32;;;3.40;99.90;;;;;;5051905;28;20216;-82
2023/03/05 06:35:02;;;;;;;10.48;8.30;;;3.40;99.90;;;;;;5051801;28;20206;-82
2023/03/05 06:37:32;;;;;;;9.30;8.30;;;3.40;99.90;;;;;;5052381;28;20210;-82
2023/03/05 06:40:00;;;;;;;9.88;8.43;;;3.30;99.90;;;;;;5055388;28;20226;-82
2023/03/05 06:42:29;;;;;;;9.32;8.30;;;3.40;99.90;;;;;;5055354;28;20209;-82
2023/03/05 06:44:57;;;;;;;14.38;8.73;;;3.30;99.90;;;;;;5055126;28;20213;-85
2023/03/05 06:47:25;;;;;;;10.05;8.65;;;3.40;99.90;;;;;;5054553;28;20228;-85
2023/03/05 06:49:54;;;;;;;13.43;8.73;;;3.40;99.90;;;;;;5055215;28;20259;-85
2023/03/05 06:52:22;;;;;;;11.18;8.57;;;3.40;99.90;;;;;;5055172;28;20206;-85
2023/03/05 06:54:54;;;;;;;15.40;10.43;;;3.40;99.90;;;;;;5054915;28;20236;-85
2023/03/05 06:57:23;;;;;;;10.90;9.38;;;3.40;99.90;;;;;;5054793;28;20212;-82
2023/03/05 06:59:51;;;;;;;11.68;9.50;;;3.40;99.90;;;;;;5055101;28;20232;-82
2023/03/05 07:02:19;;;;;;;16.80;10.55;;;3.40;99.90;;;;;;5055107;28;20212;-82
2023/03/05 07:04:48;;;;;;;12.35;10.73;;;3.40;99.90;;;;;;5055132;28;20253;-82
2023/03/05 07:07:16;;;;;;;11.52;10.23;;;3.40;99.90;;;;;;5054236;28;20289;-82
2023/03/05 07:09:44;;;;;;;11.10;9.90;;;3.40;99.90;;;;;;5054549;28;20229;-82
2023/03/05 07:12:14;;;;;;;17.52;11.60;;;3.40;99.90;;;;;;5055045;28;20210;-82
2023/03/05 07:14:43;;;;;;;17.25;10.73;;;3.40;99.90;;;;;;5054463;28;20233;-82
2023/03/05 07:17:14;;;;;;;13.10;10.82;;;3.50;99.90;;;;;;5054184;28;20291;-82
2023/03/05 07:19:42;;;;;;;13.70;11.10;;;3.40;99.90;;;;;;5054571;28;20230;-83
2023/03/05 07:22:11;;;;;;;14.30;11.32;;;3.40;99.90;;;;;;5054770;28;20208;-82
2023/03/05 07:24:39;;;;;;;12.68;11.02;;;3.50;99.90;;;;;;5054829;28;20209;-82
2023/03/05 07:27:07;;;;;;;15.27;12.02;;;3.40;99.90;;;;;;5054349;28;20216;-83
2023/03/05 07:29:37;;;;;;;16.52;11.75;;;3.50;99.90;;;;;;5054827;28;20234;-83
2023/03/05 07:32:06;;;;;;;14.18;11.82;;;3.50;99.90;;;;;;5054707;28;20206;-82
2023/03/05 07:34:34;;;;;;;10.48;8.40;;;3.60;99.90;;;;;;5054071;28;20218;-82
2023/03/05 07:37:02;;;;;;;14.68;11.45;;;3.50;99.90;;;;;;5054201;28;20213;-82
2023/03/05 07:39:31;;;;;;;11.05;9.90;;;3.50;99.90;;;;;;5054531;28;20232;-82
2023/03/05 07:42:02;;;;;;;14.75;11.07;;;3.50;99.90;;;;;;5054312;28;20202;-82
2023/03/05 07:44:33;;;;;;;11.23;10.10;;;3.50;99.90;;;;;;5054161;28;20206;-82
2023/03/05 07:47:03;;;;;;;13.43;9.88;;;3.60;99.90;;;;;;5053778;28;20213;-82
2023/03/05 07:49:31;;;;;;;12.80;11.40;;;3.70;99.90;;;;;;5053027;28;20222;-82
2023/03/05 07:51:59;;;;;;;18.42;10.57;;;3.70;99.90;;;;;;5054600;28;20212;-82
2023/03/05 07:54:28;;;;;;;11.40;9.80;;;3.70;99.90;;;;;;5054283;28;20343;-82
2023/03/05 07:56:56;;;;;;;10.65;9.55;;;3.80;99.90;;;;;;5052401;28;20212;-83
2023/03/05 07:59:24;;;;;;;17.75;10.75;;;3.90;99.90;;;;;;5054234;28;20233;-82
2023/03/05 08:01:52;;;;;;;13.80;10.90;;;3.90;99.90;;;;;;5054069;28;20208;-83
2023/03/05 08:04:22;;;;;;;16.40;9.75;;;4.00;99.90;;;;;;5054035;28;20202;-82
2023/03/05 08:06:51;;;;;;;12.57;10.13;;;4.10;99.90;;;;;;5053876;28;20201;-82
2023/03/05 08:09:20;;;;;;;10.50;9.40;;;4.10;99.90;;;;;;5053561;28;20276;-82
2023/03/05 08:11:49;;;;;;;10.38;9.18;;;4.00;99.90;;;;;;5053723;28;20213;-82
2023/03/05 08:14:17;;;;;;;12.07;10.02;;;4.00;99.90;;;;;;5053407;28;20230;-82
2023/03/05 08:16:46;;;;;;;11.80;9.43;;;4.10;99.90;;;;;;5053086;28;20233;-82
2023/03/05 08:19:15;;;;;;;14.07;9.85;;;4.20;99.90;;;;;;5053446;28;20237;-82
2023/03/05 08:21:45;;;;;;;12.20;9.75;;;4.30;99.90;;;;;;5053290;28;20202;-82
2023/03/05 08:24:13;;;;;;;14.13;11.20;;;4.40;99.90;;;;;;5053503;28;20225;-83
2023/03/05 08:26:43;;;;;;;13.80;11.35;;;4.30;99.90;;;;;;5053357;28;20241;-82
2023/03/05 08:29:11;;;;;;;13.32;10.60;;;4.30;99.90;;;;;;5053389;28;20232;-82
2023/03/05 08:31:40;;;;;;;13.70;11.00;;;4.10;99.90;;;;;;5053326;28;20201;-82
2023/03/05 08:34:08;;;;;;;15.15;10.93;;;4.10;99.90;;;;;;5053856;28;20280;-82
2023/03/05 08:36:36;;;;;;;15.82;11.82;;;4.10;99.90;;;;;;5053644;28;20218;-82
2023/03/05 08:39:07;;;;;;;16.70;11.68;;;4.20;99.90;;;;;;5052853;28;20248;-83
2023/03/05 08:41:36;;;;;;;17.02;12.38;;;4.30;99.90;;;;;;5053302;28;20256;-84
2023/03/05 08:44:05;;;;;;;12.65;10.70;;;4.40;99.90;;;;;;5053413;28;20201;-83
2023/03/05 08:46:33;;;;;;;15.98;10.60;;;4.40;99.90;;;;;;5052845;28;20206;-83
2023/03/05 08:49:02;;;;;;;16.95;10.93;;;4.30;99.90;;;;;;5052342;28;20226;-83
2023/03/05 08:51:30;;;;;;;13.57;10.57;;;4.20;99.90;;;;;;5053123;28;20304;-83
2023/03/05 08:54:00;;;;;;;14.27;11.20;;;4.30;99.90;;;;;;5052913;28;20236;-83
2023/03/05 08:56:30;;;;;;;12.93;9.95;;;4.30;99.90;;;;;;5051502;28;20214;-85
2023/03/05 08:59:01;;;;;;;11.95;10.20;;;4.30;99.90;;;;;;5052141;28;20388;-83
2023/03/05 09:01:30;;;;;;;12.02;10.45;;;4.20;99.90;;;;;;5052719;28;20213;-83
2023/03/05 09:03:59;;;;;;;11.77;10.18;;;4.20;99.90;;;;;;5052783;28;20206;-83
2023/03/05 09:06:28;;;;;;;10.88;9.70;;;4.20;99.90;;;;;;5053069;28;20204;-83
2023/03/05 09:08:56;;;;;;;12.15;10.80;;;4.30;99.90;;;;;;5051749;28;20277;-83
2023/03/05 09:11:24;;;;;;;17.15;12.27;;;4.50;99.90;;;;;;5052596;28;20206;-83
2023/03/05 09:13:54;;;;;;;14.52;11.40;;;4.60;99.90;;;;;;5052625;28;20301;-84
2023/03/05 09:16:22;;;;;;;11.75;10.05;;;4.60;99.90;;;;;;5052550;28;20210;-84
2023/03/05 09:18:50;;;;;;;17.45;11.45;;;4.70;99.90;;;;;;5052098;28;20229;-84
2023/03/05 09:21:19;;;;;;;12.27;10.20;;;4.80;99.90;;;;;;5052549;28;20221;-84
2023/03/05 09:23:47;;;;;;;14.10;11.43;;;5.00;99.90;;;;;;5052494;28;20292;-83
2023/03/05 09:26:18;;;;;;;13.90;10.77;;;5.10;99.90;;;;;;5052972;28;20209;-84
2023/03/05 09:28:47;;;;;;;11.13;9.95;;;5.30;99.90;;;;;;5052013;28;20223;-83
2023/03/05 09:31:17;;;;;;;11.27;10.10;;;5.50;99.90;;;;;;5052685;28;20216;-83
2023/03/05 09:33:47;;;;;;;14.00;11.20;;;5.70;99.90;;;;;;5052586;28;20205;-83
2023/03/05 09:36:19;;;;;;;14.13;10.43;;;5.70;99.90;;;;;;5052082;28;20321;-81
2023/03/05 09:38:47;;;;;;;11.52;9.88;;;5.80;99.90;;;;;;5051949;28;20222;-81
2023/03/05 09:41:21;;;;;;;14.38;11.15;;;5.80;99.90;;;;;;5052360;28;20212;-82
2023/03/05 09:43:56;;;;;;;11.13;9.98;;;5.80;99.90;;;;;;5052176;28;20217;-81
2023/03/05 09:46:40;;;;;;;11.15;9.90;;;5.90;99.90;;;;;;5052058;28;20205;-82
2023/03/05 09:49:16;;;;;;;11.52;10.23;;;6.00;99.90;;;;;;5052187;28;20244;-82
2023/03/05 09:51:48;;;;;;;12.77;11.38;;;6.20;99.90;;;;;;5052625;28;20205;-82
2023/03/05 09:54:20;;;;;;;11.38;9.63;;;6.50;99.90;;;;;;5052489;28;20221;-82
2023/03/05 09:56:51;;;;;;;13.35;9.98;;;6.80;99.90;;;;;;5051694;28;20296;-82
2023/03/05 09:59:27;;;;;;;13.65;10.98;;;6.60;99.90;;;;;;5052127;28;20229;-82
2023/03/05 10:02:03;;;;;;;16.05;10.90;;;6.60;99.90;;;;;;5052435;28;20281;-82
2023/03/05 10:04:42;;;;;;;12.82;10.63;;;6.60;99.90;;;;;;5052145;28;20223;-82
2023/03/05 10:07:16;;;;;;;9.70;8.70;;;6.70;99.90;;;;;;5051570;28;20224;-82
2023/03/05 10:09:49;;;;;;;13.27;10.48;;;6.90;99.90;;;;;;5052799;28;20221;-81
2023/03/05 10:12:24;;;;;;;10.70;9.60;;;6.90;99.90;;;;;;5058816;28;20202;-80
2023/03/05 10:14:52;;;;;;;16.40;9.18;;;6.70;99.90;;;;;;5057679;28;20213;-80
2023/03/05 10:17:50;;;;;;;11.93;9.82;;;6.90;99.90;;;;;;5055075;28;20210;-80
2023/03/05 10:20:50;;;;;;;11.55;9.98;;;7.00;99.90;;;;;;5055763;28;20301;-83
2023/03/05 10:23:41;;;;;;;10.02;8.40;;;7.00;99.90;;;;;;5055920;28;20205;-87
2023/03/05 10:26:26;;;;;;;12.35;10.15;;;7.00;99.90;;;;;;5055833;28;20213;-80
2023/03/05 10:29:07;;;;;;;11.60;10.38;;;6.80;99.90;;;;;;5056645;28;20225;-80
2023/03/05 10:31:51;;;;;;;13.30;9.88;;;7.00;99.90;;;;;;5055678;28;20217;-81
2023/03/05 10:35:01;;;;;;;12.60;10.95;;;7.10;99.90;;;;;;5055895;28;20216;-80
2023/03/05 10:37:52;;;;;;;11.95;10.10;;;7.30;99.90;;;;;;5055197;28;20210;-81
2023/03/05 10:40:31;;;;;;;14.27;10.88;;;7.20;99.90;;;;;;5055716;28;20233;-81
2023/03/05 10:43:07;;;;;;;13.60;10.75;;;7.10;99.90;;;;;;5055307;28;20288;-81
2023/03/05 10:45:39;;;;;;;12.32;10.07;;;7.10;99.90;;;;;;5055461;28;20211;-80
2023/03/05 10:48:15;;;;;;;15.57;11.88;;;7.40;99.90;;;;;;5054499;28;20210;-80
2023/03/05 10:50:49;;;;;;;10.63;9.52;;;7.50;99.90;;;;;;5055118;28;20225;-81
2023/03/05 10:53:26;;;;;;;15.82;10.27;;;7.50;99.90;;;;;;5055252;28;20204;-80
2023/03/05 10:55:56;;;;;;;17.15;10.98;;;7.80;99.90;;;;;;5054925;28;20225;-80
2023/03/05 10:58:25;;;;;;;10.20;9.20;;;8.10;99.90;;;;;;5054712;28;20202;-81
2023/03/05 11:01:05;;;;;;;14.85;11.13;;;8.00;99.90;;;;;;5054744;28;20222;-80
2023/03/05 11:03:52;;;;;;;10.88;9.75;;;8.20;99.90;;;;;;5054938;28;20197;-84
2023/03/05 11:06:31;;;;;;;10.80;9.70;;;8.30;99.90;;;;;;5054888;28;20220;-84
2023/03/05 11:09:26;;;;;;;15.43;10.82;;;8.30;99.90;;;;;;5054109;28;20226;-84
2023/03/05 11:12:13;;;;;;;23.10;11.30;;;8.20;99.90;;;;;;5054875;28;20212;-83
2023/03/05 11:14:44;;;;;;;12.13;9.20;;;8.10;99.90;;;;;;5054671;28;20212;-84
2023/03/05 11:17:29;;;;;;;14.07;11.32;;;8.00;99.90;;;;;;5053645;28;20233;-84
2023/03/05 11:20:18;;;;;;;14.05;11.13;;;8.00;99.90;;;;;;5054342;28;20237;-84
2023/03/05 11:23:03;;;;;;;13.18;10.32;;;8.20;99.90;;;;;;5054290;28;20205;-84
2023/03/05 11:25:33;;;;;;;13.27;9.90;;;8.10;99.90;;;;;;5054286;28;20206;-84
2023/03/05 11:28:03;;;;;;;12.38;10.70;;;7.90;99.90;;;;;;5053868;28;20205;-84
2023/03/05 11:30:34;;;;;;;13.30;10.43;;;7.70;99.90;;;;;;5053916;28;20316;-83
2023/03/05 11:33:13;;;;;;;12.23;10.88;;;7.50;99.90;;;;;;5054504;28;20215;-83
2023/03/05 11:35:43;;;;;;;12.95;10.25;;;7.50;99.90;;;;;;5054320;28;20226;-83
2023/03/05 11:38:19;;;;;;;12.73;10.77;;;7.40;99.90;;;;;;5052627;28;20348;-83
2023/03/05 11:40:49;;;;;;;11.63;9.88;;;7.50;99.90;;;;;;5054363;28;20221;-80
2023/03/05 11:43:19;;;;;;;20.30;10.27;;;7.40;99.90;;;;;;5054270;28;20210;-84
2023/03/05 11:45:50;;;;;;;11.80;10.35;;;7.10;99.90;;;;;;5054148;28;20204;-84
2023/03/05 11:48:25;;;;;;;12.32;9.68;;;6.90;99.90;;;;;;5053333;28;20205;-84
2023/03/05 11:50:57;;;;;;;11.05;9.77;;;6.80;99.90;;;;;;5054026;28;20298;-84
2023/03/05 11:53:29;;;;;;;14.75;10.50;;;6.80;99.90;;;;;;5054561;28;20210;-85
2023/03/05 11:56:03;;;;;;;11.40;9.63;;;6.70;99.90;;;;;;5053924;28;20349;-86
2023/03/05 11:58:35;;;;;;;19.00;11.90;;;6.70;99.90;;;;;;5053223;28;20210;-84
2023/03/05 12:01:08;;;;;;;10.45;9.00;;;6.60;99.90;;;;;;5053887;28;20210;-84
2023/03/05 12:03:39;;;;;;;11.27;10.07;;;6.60;99.90;;;;;;5054226;28;20202;-84
2023/03/05 12:06:15;;;;;;;11.15;9.63;;;6.50;99.90;;;;;;5053557;28;20209;-84
2023/03/05 12:08:49;;;;;;;11.98;10.38;;;6.50;99.90;;;;;;5053183;28;20208;-84
2023/03/05 12:11:20;;;;;;;11.98;9.68;;;6.50;99.90;;;;;;5054160;28;20220;-84
2023/03/05 12:13:52;;;;;;;10.07;8.98;;;6.50;99.90;;;;;;5053621;28;20220;-84
2023/03/05 12:16:33;;;;;;;13.02;10.30;;;6.40;99.90;;;;;;5053346;28;20275;-84
2023/03/05 12:19:23;;;;;;;12.88;9.80;;;6.30;99.90;;;;;;5053172;28;20225;-84
2023/03/05 12:21:53;;;;;;;14.88;10.20;;;6.20;99.90;;;;;;5053785;28;20209;-84
2023/03/05 12:24:38;;;;;;;11.25;8.95;;;6.10;99.90;;;;;;5053586;28;20288;-84
2023/03/05 12:27:14;;;;;;;18.40;9.10;;;6.00;99.90;;;;;;5053009;28;20208;-84
2023/03/05 12:29:46;;;;;;;11.10;9.95;;;6.00;99.90;;;;;;5053215;28;20217;-80
2023/03/05 12:32:52;;;;;;;13.45;10.60;;;6.10;99.90;;;;;;5053492;28;20283;-80
2023/03/05 12:35:28;;;;;;;12.88;10.00;;;6.10;99.90;;;;;;5030387;28;20203;-79
2023/03/05 12:38:18;;;;;;;12.88;10.02;;;6.00;99.90;;;;;;5050295;28;20220;-80
2023/03/05 12:41:30;;;;;;;13.82;10.57;;;5.90;99.90;;;;;;5053393;28;20329;-80
2023/03/05 12:44:22;;;;;;;10.38;8.00;;;6.00;99.90;;;;;;5053177;28;20205;-80
2023/03/05 12:47:22;;;;;;;17.48;10.63;;;6.00;99.90;;;;;;5052560;28;20210;-80
2023/03/05 12:49:51;;;;;;;11.57;9.15;;;6.00;99.90;;;;;;5052661;28;20225;-80
2023/03/05 12:52:30;;;;;;;14.77;11.15;;;6.10;99.90;;;;;;5052970;28;20205;-82
2023/03/05 12:55:19;;;;;;;12.07;7.88;;;6.00;99.90;;;;;;5052875;28;20205;-80
2023/03/05 12:57:53;;;;;;;17.33;8.35;;;6.00;99.90;;;;;;5052245;28;20248;-80
2023/03/05 13:00:32;;;;;;;10.38;7.10;;;6.00;99.90;;;;;;5052672;28;20225;-80
2023/03/05 13:03:04;;;;;;;6.57;5.85;;;5.90;99.90;;;;;;5052798;28;20202;-80
2023/03/05 13:05:33;;;;;;;5.15;4.63;;;5.90;99.90;;;;;;5052626;28;20228;-80
2023/03/05 13:08:13;;;;;;;5.20;4.70;;;5.80;99.90;;;;;;5052570;28;20197;-80